LNNSV ENBO-ENEN

Flight info

Callsign LNNSV
Flight time 0h 28m
Altitude 7000
Route ARDUX
Aircraft BT36/L-BDFGLORY/S

Departure

Time 2026-05-04 22:07
Airport Bodø Airport (ENBO)

Arrival

Time 2026-05-04 22:36
Airport Engeløy Airfield (ENEN)
Time Latitude Longitude Altitude Speed Heading
2026-05-04 22:02 67.27189 14.37241 44 ft 0 kts 291°
2026-05-04 22:05 67.27187 14.37215 44 ft 8 kts 225°
2026-05-04 22:05 67.27121 14.37339 48 ft 19 kts 94°
2026-05-04 22:06 67.27145 14.37749 51 ft 27 kts 79°
2026-05-04 22:06 67.27161 14.38190 50 ft 19 kts 94°
2026-05-04 22:06 67.27108 14.38370 49 ft 16 kts 179°
2026-05-04 22:06 67.27059 14.38163 48 ft 35 kts 258°
2026-05-04 22:07 67.26961 14.37111 275 ft 62 kts 256°
2026-05-04 22:07 67.26801 14.35825 462 ft 94 kts 255°
2026-05-04 22:07 67.26864 14.34081 781 ft 108 kts 298°
2026-05-04 22:07 67.27531 14.33207 1305 ft 109 kts 357°
2026-05-04 22:08 67.28224 14.33997 1595 ft 120 kts 40°
2026-05-04 22:08 67.28700 14.35866 1873 ft 121 kts 65°
2026-05-04 22:08 67.28854 14.38086 2149 ft 127 kts 85°
2026-05-04 22:08 67.28758 14.40388 2403 ft 133 kts 102°
2026-05-04 22:09 67.28241 14.42366 2604 ft 139 kts 146°
2026-05-04 22:09 67.27346 14.42889 2866 ft 131 kts 196°
2026-05-04 22:09 67.26720 14.41596 3234 ft 112 kts 256°
2026-05-04 22:09 67.26953 14.39645 3281 ft 126 kts 315°
2026-05-04 22:10 67.27755 14.39221 3641 ft 124 kts 12°
2026-05-04 22:10 67.28526 14.40278 3890 ft 131 kts 25°
2026-05-04 22:10 67.29343 14.41574 4004 ft 140 kts 26°
2026-05-04 22:10 67.30140 14.42863 4256 ft 130 kts 26°
2026-05-04 22:11 67.30894 14.44086 4432 ft 126 kts 24°
2026-05-04 22:11 67.31679 14.45203 4478 ft 134 kts 24°
2026-05-04 22:11 67.32421 14.46579 4736 ft 124 kts 33°
2026-05-04 22:11 67.33058 14.47803 5088 ft 110 kts 30°
2026-05-04 22:12 67.33656 14.49065 5303 ft 111 kts 32°
2026-05-04 22:12 67.34275 14.50314 5520 ft 112 kts 25°
2026-05-04 22:12 67.34954 14.51288 5738 ft 111 kts 18°
2026-05-04 22:12 67.35675 14.51954 5958 ft 110 kts 14°
2026-05-04 22:13 67.36387 14.52569 6178 ft 109 kts 10°
2026-05-04 22:13 67.37117 14.53096 6402 ft 108 kts
2026-05-04 22:13 67.37855 14.53524 6587 ft 111 kts
2026-05-04 22:13 67.38609 14.53877 6793 ft 110 kts
2026-05-04 22:14 67.39387 14.53975 6976 ft 111 kts 356°
2026-05-04 22:14 67.40131 14.53852 7210 ft 108 kts 347°
2026-05-04 22:14 67.40902 14.53513 7274 ft 120 kts 345°
2026-05-04 22:14 67.41759 14.53011 7276 ft 131 kts 342°
2026-05-04 22:15 67.42681 14.52400 7233 ft 141 kts 342°
2026-05-04 22:15 67.43650 14.51717 7133 ft 149 kts 340°
2026-05-04 22:15 67.44542 14.50414 7045 ft 149 kts 315°
2026-05-04 22:15 67.45132 14.48275 6948 ft 151 kts 318°
2026-05-04 22:16 67.46138 14.48014 7007 ft 153 kts 15°
2026-05-04 22:16 67.47124 14.49094 6977 ft 155 kts 18°
2026-05-04 22:16 67.48116 14.50179 6994 ft 153 kts 18°
2026-05-04 22:16 67.49082 14.51312 6968 ft 156 kts 21°
2026-05-04 22:17 67.50073 14.52462 7000 ft 153 kts 18°
2026-05-04 22:17 67.51037 14.53484 7022 ft 152 kts 18°
2026-05-04 22:17 67.52032 14.54556 6961 ft 156 kts 22°
2026-05-04 22:17 67.52961 14.56037 6984 ft 155 kts 30°
2026-05-04 22:18 67.53877 14.57553 6966 ft 157 kts 26°
2026-05-04 22:18 67.54846 14.58856 6956 ft 155 kts 20°
2026-05-04 22:18 67.55830 14.59963 6946 ft 155 kts 21°
2026-05-04 22:18 67.56800 14.61215 6944 ft 155 kts 23°
2026-05-04 22:19 67.57764 14.62457 6951 ft 154 kts 20°
2026-05-04 22:19 67.58747 14.63548 6951 ft 153 kts 17°
2026-05-04 22:19 67.59756 14.64452 6928 ft 153 kts 14°
2026-05-04 22:19 67.60774 14.65292 6924 ft 153 kts 14°
2026-05-04 22:20 67.61787 14.66057 6972 ft 148 kts 11°
2026-05-04 22:20 67.62749 14.66750 6966 ft 143 kts 11°
2026-05-04 22:20 67.63693 14.67497 6973 ft 139 kts 13°
2026-05-04 22:20 67.64624 14.68276 6903 ft 141 kts 14°
2026-05-04 22:21 67.65542 14.69085 6911 ft 138 kts 15°
2026-05-04 22:21 67.66449 14.69941 6868 ft 138 kts 16°
2026-05-04 22:21 67.67354 14.70849 6768 ft 140 kts 15°
2026-05-04 22:21 67.68268 14.71775 6666 ft 141 kts 17°
2026-05-04 22:22 67.69179 14.72753 6547 ft 141 kts 19°
2026-05-04 22:22 67.70066 14.73778 6464 ft 139 kts 20°
2026-05-04 22:22 67.70940 14.74934 6334 ft 142 kts 25°
2026-05-04 22:22 67.71756 14.76367 6256 ft 141 kts 33°
2026-05-04 22:23 67.72534 14.77940 6175 ft 139 kts 30°
2026-05-04 22:23 67.73368 14.79143 6022 ft 141 kts 18°
2026-05-04 22:23 67.74287 14.80046 5908 ft 139 kts 15°
2026-05-04 22:23 67.75190 14.80872 5830 ft 137 kts 14°
2026-05-04 22:24 67.76088 14.81732 5715 ft 137 kts 16°
2026-05-04 22:24 67.76973 14.82662 5610 ft 137 kts 18°
2026-05-04 22:24 67.77824 14.83582 5504 ft 128 kts 15°
2026-05-04 22:24 67.78667 14.84436 5260 ft 130 kts 16°
2026-05-04 22:25 67.79240 14.84988 5109 ft 129 kts 15°
2026-05-04 22:25 67.80047 14.85755 4978 ft 125 kts 14°
2026-05-04 22:25 67.80889 14.86412 4784 ft 124 kts
2026-05-04 22:25 67.81727 14.86579 4602 ft 121 kts 354°
2026-05-04 22:26 67.82563 14.86474 4375 ft 117 kts 352°
2026-05-04 22:26 67.83433 14.86564 3974 ft 128 kts
2026-05-04 22:26 67.84307 14.87129 3723 ft 128 kts 14°
2026-05-04 22:26 67.85141 14.87934 3508 ft 126 kts 15°
2026-05-04 22:27 67.85955 14.88772 3311 ft 127 kts 17°
2026-05-04 22:27 67.86772 14.89706 3109 ft 128 kts 17°
2026-05-04 22:27 67.87582 14.90605 2944 ft 125 kts 18°
2026-05-04 22:27 67.88378 14.91554 2730 ft 124 kts 15°
2026-05-04 22:28 67.89207 14.92220 2543 ft 123 kts 10°
2026-05-04 22:28 67.90030 14.92898 2346 ft 124 kts 11°
2026-05-04 22:28 67.90861 14.93468 2124 ft 124 kts
2026-05-04 22:28 67.91702 14.93802 1905 ft 124 kts
2026-05-04 22:29 67.92542 14.93998 1696 ft 122 kts 358°
2026-05-04 22:29 67.93398 14.94124 1456 ft 124 kts 358°
2026-05-04 22:29 67.94248 14.94397 1229 ft 125 kts
2026-05-04 22:29 67.95108 14.95062 923 ft 130 kts 16°
2026-05-04 22:30 67.95891 14.96330 604 ft 135 kts 40°
2026-05-04 22:30 67.96495 14.98315 225 ft 141 kts 53°
2026-05-04 22:30 67.96971 15.00451 119 ft 126 kts 54°
2026-05-04 22:30 67.97431 15.02214 254 ft 110 kts 41°
2026-05-04 22:31 67.98118 15.02784 321 ft 106 kts 347°
2026-05-04 22:31 67.98801 15.02292 433 ft 99 kts 336°
2026-05-04 22:31 67.99420 15.01758 550 ft 83 kts 342°
2026-05-04 22:31 67.99987 15.01899 549 ft 89 kts 27°
2026-05-04 22:32 68.00315 15.03295 602 ft 90 kts 78°
2026-05-04 22:32 68.00255 15.04916 693 ft 92 kts 111°
2026-05-04 22:32 68.00008 15.06566 728 ft 104 kts 89°
2026-05-04 22:32 68.00096 15.08411 930 ft 95 kts 85°
2026-05-04 22:33 67.99865 15.10033 1042 ft 94 kts 139°
2026-05-04 22:33 67.99318 15.10706 970 ft 83 kts 188°
2026-05-04 22:33 67.98901 15.09989 867 ft 71 kts 252°
2026-05-04 22:33 67.98737 15.08772 814 ft 67 kts 254°
2026-05-04 22:34 67.98557 15.07658 734 ft 66 kts 251°
2026-05-04 22:34 67.98315 15.06583 647 ft 70 kts 239°
2026-05-04 22:34 67.98053 15.05505 591 ft 68 kts 247°
2026-05-04 22:34 67.97830 15.04448 430 ft 63 kts 246°
2026-05-04 22:35 67.97614 15.03476 332 ft 59 kts 246°
2026-05-04 22:35 67.97403 15.02558 260 ft 59 kts 246°
2026-05-04 22:35 67.97206 15.01616 182 ft 58 kts 248°
2026-05-04 22:35 67.97010 15.00652 96 ft 58 kts 247°
2026-05-04 22:36 67.96830 14.99907 16 ft 28 kts 261°
2026-05-04 22:36 67.96738 14.99527 19 ft 12 kts 199°
2026-05-04 22:36 67.96717 14.99593 17 ft 0 kts 311°